Time;durP1;ratioP1;P1;durP2;ratioP2;P2;SDS_P1;SDS_P2;PMS_P1;PMS_P2;Temp;Humidity;BMP_temperature;BMP_pressure;BME280_temperature;BME280_humidity;BME280_pressure;Samples;Min_cycle;Max_cycle;Signal;HPM_P1;HPM_P2
2023/07/06 00:01:48;;;;;;;;;4.00;4.00;;;;;23.60;39.52;101237.66;4961101;28;45575;-49
2023/07/06 00:04:14;;;;;;;;;4.25;3.75;;;;;23.60;39.37;101243.81;4959868;28;45527;-48
2023/07/06 00:06:39;;;;;;;;;3.25;3.00;;;;;23.60;39.28;101241.16;4960116;28;45615;-50
2023/07/06 00:09:08;;;;;;;;;5.00;3.50;;;;;23.60;39.54;101240.31;4960069;28;46318;-43
2023/07/06 00:11:35;;;;;;;;;5.00;3.50;;;;;23.60;39.11;101251.75;4959829;28;45616;-46
2023/07/06 00:14:01;;;;;;;;;4.00;4.00;;;;;23.58;39.54;101245.72;4967918;28;45218;-47
2023/07/06 00:16:27;;;;;;;;;3.00;3.00;;;;;23.58;39.30;101248.38;4975305;28;45308;-48
2023/07/06 00:18:52;;;;;;;;;4.00;4.00;;;;;23.59;39.50;101249.19;4960203;28;47179;-47
2023/07/06 00:21:17;;;;;;;;;4.25;3.50;;;;;23.60;39.32;101253.53;4958884;28;61123;-48
2023/07/06 00:23:43;;;;;;;;;5.00;4.00;;;;;23.59;39.46;101244.75;4961343;28;45431;-47
2023/07/06 00:26:09;;;;;;;;;3.00;3.00;;;;;23.59;39.28;101254.50;4961636;28;45475;-46
2023/07/06 00:28:35;;;;;;;;;6.25;4.00;;;;;23.59;39.41;101254.50;4962576;28;46331;-51
2023/07/06 00:31:10;;;;;;;;;3.00;3.00;;;;;23.59;39.36;101254.50;4960344;28;45460;-46
2023/07/06 00:33:36;;;;;;;;;3.00;3.00;;;;;23.58;39.53;101252.78;4963883;28;45373;-47
2023/07/06 00:36:03;;;;;;;;;3.00;3.00;;;;;23.57;39.90;101251.94;4960525;28;45322;-50
2023/07/06 00:38:29;;;;;;;;;3.00;3.00;;;;;23.58;39.97;101252.78;4976327;28;47334;-50
2023/07/06 00:40:57;;;;;;;;;3.00;3.00;;;;;23.58;39.91;101263.38;4963551;28;45356;-52
2023/07/06 00:43:27;;;;;;;;;5.75;3.00;;;;;23.57;39.96;101251.09;4961348;28;45439;-50
2023/07/06 00:46:12;;;;;;;;;3.00;2.00;;;;;23.57;39.57;101253.72;4962310;28;45452;-51
2023/07/06 00:48:44;;;;;;;;;4.75;3.00;;;;;23.56;39.39;101255.53;4965337;28;46661;-51
2023/07/06 00:51:16;;;;;;;;;2.50;2.50;;;;;23.56;39.56;101259.97;4963290;28;45330;-47
2023/07/06 00:53:47;;;;;;;;;4.75;3.00;;;;;23.56;39.91;101266.13;4961448;28;45258;-53
2023/07/06 00:56:17;;;;;;;;;9.00;4.25;;;;;23.56;39.94;101267.91;4960674;28;45432;-49
2023/07/06 00:58:48;;;;;;;;;1.50;0.00;;;;;23.55;39.65;101274.13;4960271;28;47246;-47
2023/07/06 01:01:21;;;;;;;;;3.50;2.00;;;;;23.54;39.34;101267.13;4959291;28;45178;-49
2023/07/06 01:03:52;;;;;;;;;4.00;4.00;;;;;23.52;40.00;101272.53;4960912;28;45480;-47
2023/07/06 01:06:25;;;;;;;;;1.00;1.00;;;;;23.51;39.82;101268.19;4958957;28;45431;-50
2023/07/06 01:08:52;;;;;;;;;8.00;4.00;;;;;23.52;40.10;101271.69;4961073;28;45222;-46
2023/07/06 01:11:19;;;;;;;;;3.00;3.00;;;;;23.52;39.59;101272.53;4961236;28;45658;-50
2023/07/06 01:13:49;;;;;;;;;3.75;3.00;;;;;23.51;40.01;101270.00;4958972;28;45417;-49
2023/07/06 01:16:23;;;;;;;;;3.75;2.50;;;;;23.51;39.62;101270.00;4958717;28;45341;-50
2023/07/06 01:19:06;;;;;;;;;7.25;3.50;;;;;23.53;39.54;101276.03;4962442;28;47180;-48
2023/07/06 01:21:56;;;;;;;;;4.00;3.00;;;;;23.52;39.73;101266.41;4965162;28;45145;-51
2023/07/06 01:24:43;;;;;;;;;3.75;3.00;;;;;23.51;39.98;101262.06;4968993;28;44704;-48
2023/07/06 01:27:32;;;;;;;;;3.50;3.50;;;;;23.51;40.23;101262.06;4964672;28;45246;-48
2023/07/06 01:30:31;;;;;;;;;3.75;3.00;;;;;23.51;39.80;101265.53;4964149;28;46163;-50
2023/07/06 01:33:04;;;;;;;;;3.25;3.25;;;;;23.49;39.85;101264.78;4963126;28;45355;-53
2023/07/06 01:35:39;;;;;;;;;4.50;4.25;;;;;23.49;40.23;101267.41;4960890;28;45542;-49
2023/07/06 01:38:05;;;;;;;;;4.50;3.50;;;;;23.49;40.26;101263.94;4960076;28;45345;-48
2023/07/06 01:40:30;;;;;;;;;4.75;3.25;;;;;23.49;39.65;101264.78;4959743;28;45175;-48
2023/07/06 01:42:59;;;;;;;;;6.00;4.00;;;;;23.49;39.62;101256.00;4960014;28;45272;-44
2023/07/06 01:45:24;;;;;;;;;3.00;3.00;;;;;23.49;39.96;101261.28;4958083;28;45346;-49
2023/07/06 01:47:56;;;;;;;;;5.75;4.00;;;;;23.50;39.98;101252.41;4962110;28;45317;-45
2023/07/06 01:50:48;;;;;;;;;3.00;3.00;;;;;23.47;39.97;101250.81;4958565;28;46892;-47
2023/07/06 01:53:30;;;;;;;;;4.50;3.50;;;;;23.47;40.19;101256.09;4956350;28;45762;-49
2023/07/06 01:56:07;;;;;;;;;3.50;3.00;;;;;23.48;39.93;101252.53;4957354;28;45376;-52
2023/07/06 01:58:43;;;;;;;;;4.75;4.00;;;;;23.48;40.32;101249.88;4958328;28;45636;-50
2023/07/06 02:01:14;;;;;;;;;5.00;3.00;;;;;23.47;40.20;101251.66;4958044;28;47094;-51
2023/07/06 02:03:41;;;;;;;;;4.00;4.00;;;;;23.46;40.23;101244.66;4961995;28;45766;-53
2023/07/06 02:06:08;;;;;;;;;7.25;3.75;;;;;23.47;40.07;101256.94;4961391;28;45177;-48
2023/07/06 02:08:41;;;;;;;;;5.00;4.00;;;;;23.47;39.76;101254.31;4961790;28;45572;-47
2023/07/06 02:11:10;;;;;;;;;6.25;4.00;;;;;23.46;39.87;101249.94;4961294;28;46886;-47
2023/07/06 02:13:35;;;;;;;;;3.50;3.00;;;;;23.43;40.30;101244.00;4963647;28;45768;-51
2023/07/06 02:16:04;;;;;;;;;5.50;4.00;;;;;23.46;40.18;101249.94;4961409;28;45490;-52
2023/07/06 02:18:30;;;;;;;;;8.50;3.75;;;;;23.45;40.01;101242.97;4972443;28;45556;-49
2023/07/06 02:20:57;;;;;;;;;4.00;4.00;;;;;23.44;40.46;101243.91;4976991;28;46506;-49
2023/07/06 02:23:23;;;;;;;;;5.00;4.00;;;;;23.45;40.23;101250.88;4962470;28;45391;-48
2023/07/06 02:25:48;;;;;;;;;7.25;5.75;;;;;23.45;40.00;101242.97;4961757;28;45271;-43
2023/07/06 02:28:14;;;;;;;;;6.50;5.00;;;;;23.45;40.42;101235.03;4968049;28;45466;-45
2023/07/06 02:30:39;;;;;;;;;4.00;4.00;;;;;23.44;39.96;101241.25;4970485;28;45242;-46
2023/07/06 02:33:04;;;;;;;;;4.50;4.00;;;;;23.43;40.39;101234.25;4969343;28;52646;-52
2023/07/06 02:35:32;;;;;;;;;5.00;4.00;;;;;23.45;40.39;101237.66;4985339;28;44637;-44
2023/07/06 02:37:58;;;;;;;;;4.25;3.75;;;;;23.43;40.67;101239.56;4977082;28;45269;-50
2023/07/06 02:40:23;;;;;;;;;4.00;4.00;;;;;23.43;40.05;101239.56;4963804;28;46973;-47
2023/07/06 02:42:48;;;;;;;;;3.50;3.50;;;;;23.42;40.04;101240.53;4981080;28;44690;-46
2023/07/06 02:45:14;;;;;;;;;6.50;5.25;;;;;23.44;40.36;101245.72;4968133;28;52031;-50
2023/07/06 02:47:41;;;;;;;;;6.25;4.00;;;;;23.41;39.84;101244.09;4961351;28;45363;-52
2023/07/06 02:50:10;;;;;;;;;3.00;3.00;;;;;23.42;40.34;101250.22;4958986;28;46536;-52
2023/07/06 02:52:37;;;;;;;;;5.00;5.00;;;;;23.41;40.22;101256.47;4960627;28;45239;-47
2023/07/06 02:55:02;;;;;;;;;5.00;4.75;;;;;23.40;40.34;101255.63;4960461;28;45503;-50
2023/07/06 02:57:28;;;;;;;;;6.50;4.50;;;;;23.40;40.00;101255.63;4960340;28;45793;-48
2023/07/06 02:59:56;;;;;;;;;5.75;4.00;;;;;23.40;40.00;101260.91;4959708;28;56769;-53
2023/07/06 03:02:22;;;;;;;;;5.50;4.25;;;;;23.40;40.44;101266.22;4960710;28;45429;-48
2023/07/06 03:04:47;;;;;;;;;5.50;4.00;;;;;23.38;40.27;101260.16;4962370;28;45266;-47
2023/07/06 03:07:13;;;;;;;;;5.00;4.00;;;;;23.41;39.96;101264.41;4960866;28;57211;-49
2023/07/06 03:09:38;;;;;;;;;4.00;4.00;;;;;23.39;40.35;101261.84;4979297;28;46149;-51
2023/07/06 03:12:05;;;;;;;;;3.00;2.50;;;;;23.39;40.26;101264.50;4971283;28;56559;-52
2023/07/06 03:14:32;;;;;;;;;5.00;5.00;;;;;23.39;40.23;101263.63;4960331;28;45254;-51
2023/07/06 03:16:57;;;;;;;;;7.00;4.25;;;;;23.38;40.14;101261.94;4962623;28;45387;-50
2023/07/06 03:19:23;;;;;;;;;4.75;4.75;;;;;23.38;40.30;101257.50;4965650;28;46166;-50
2023/07/06 03:21:48;;;;;;;;;5.00;5.00;;;;;23.39;40.49;101258.34;4983934;28;45259;-47
2023/07/06 03:24:15;;;;;;;;;3.25;3.00;;;;;23.38;40.27;101256.66;4965980;28;45381;-45
2023/07/06 03:26:41;;;;;;;;;4.00;4.00;;;;;23.38;40.42;101257.50;4963168;28;45478;-51
2023/07/06 03:29:08;;;;;;;;;3.75;3.75;;;;;23.37;40.52;101253.16;4959512;28;46807;-45
2023/07/06 03:31:34;;;;;;;;;3.50;3.50;;;;;23.37;40.25;101253.16;4959922;28;45771;-44
2023/07/06 03:34:00;;;;;;;;;4.25;4.25;;;;;23.37;40.31;101258.44;4960834;28;45375;-45
2023/07/06 03:36:26;;;;;;;;;3.50;3.50;;;;;23.36;40.40;101254.09;4969496;28;45216;-49
2023/07/06 03:38:52;;;;;;;;;4.00;4.00;;;;;23.37;40.51;101260.25;4984245;28;47588;-44
2023/07/06 03:41:18;;;;;;;;;6.75;4.50;;;;;23.35;40.35;101256.84;4961463;28;45311;-46
2023/07/06 03:43:44;;;;;;;;;5.00;4.00;;;;;23.38;40.63;101272.50;4960671;28;45880;-46
2023/07/06 03:46:10;;;;;;;;;4.00;4.00;;;;;23.37;40.68;101263.75;4960197;28;45427;-48
2023/07/06 03:48:36;;;;;;;;;5.00;3.50;;;;;23.38;40.49;101268.09;4959906;28;45480;-51
2023/07/06 03:51:03;;;;;;;;;3.50;3.00;;;;;23.37;40.24;101262.91;4960264;28;45404;-49
2023/07/06 03:53:32;;;;;;;;;3.75;3.75;;;;;23.37;40.27;101268.19;4960083;28;45230;-47
2023/07/06 03:55:58;;;;;;;;;4.25;3.25;;;;;23.37;40.39;101265.56;4960219;28;45409;-48
2023/07/06 03:58:24;;;;;;;;;3.00;3.00;;;;;23.37;40.79;101268.19;4960396;28;46090;-51
2023/07/06 04:00:49;;;;;;;;;4.25;3.25;;;;;23.37;40.77;101260.25;4959266;28;45904;-49
2023/07/06 04:03:15;;;;;;;;;5.00;3.00;;;;;23.35;40.24;101262.16;4960123;28;45344;-49
2023/07/06 04:05:44;;;;;;;;;3.25;2.25;;;;;23.36;40.26;101264.69;4959636;28;50260;-48
2023/07/06 04:08:15;;;;;;;;;4.00;4.00;;;;;23.37;40.31;101262.91;4959863;28;46603;-48
2023/07/06 04:10:40;;;;;;;;;3.50;3.50;;;;;23.36;40.45;101264.69;4959872;28;45412;-49
2023/07/06 04:13:08;;;;;;;;;6.50;3.00;;;;;23.36;40.63;101256.75;4959857;28;45265;-49
2023/07/06 04:15:34;;;;;;;;;3.00;3.00;;;;;23.35;40.29;101268.28;4959812;28;45457;-49
2023/07/06 04:18:00;;;;;;;;;4.00;4.00;;;;;23.35;40.56;101260.34;4959708;28;47409;-51
2023/07/06 04:20:28;;;;;;;;;3.00;3.00;;;;;23.35;40.40;101262.97;4959534;28;45282;-47
2023/07/06 04:22:55;;;;;;;;;4.00;4.00;;;;;23.36;40.63;101256.75;4959558;28;45326;-46
2023/07/06 04:25:26;;;;;;;;;4.00;4.00;;;;;23.35;40.38;101267.44;4960112;28;45443;-47
2023/07/06 04:27:52;;;;;;;;;3.50;3.50;;;;;23.34;40.46;101261.28;4967500;28;47435;-51
2023/07/06 04:30:20;;;;;;;;;3.25;3.25;;;;;23.34;40.20;101266.56;4970432;28;45380;-51
2023/07/06 04:32:48;;;;;;;;;3.00;3.00;;;;;23.35;40.51;101262.97;4962231;28;45332;-49
2023/07/06 04:35:16;;;;;;;;;5.25;4.00;;;;;23.35;40.47;101265.63;4958823;28;45301;-51
2023/07/06 04:37:41;;;;;;;;;2.75;2.75;;;;;23.35;40.60;101262.97;4959277;28;45380;-49
2023/07/06 04:40:13;;;;;;;;;3.25;3.25;;;;;23.36;40.37;101267.34;4959065;28;45403;-48
2023/07/06 04:42:40;;;;;;;;;2.00;2.00;;;;;23.35;40.14;101262.97;4962545;28;45393;-53
2023/07/06 04:45:09;;;;;;;;;5.75;4.25;;;;;23.34;40.26;101271.84;4972439;28;45613;-47
2023/07/06 04:47:35;;;;;;;;;2.25;1.25;;;;;23.34;40.35;101255.16;4978650;28;45531;-50
2023/07/06 04:50:01;;;;;;;;;4.00;4.00;;;;;23.33;40.58;101270.16;4961819;28;45367;-50
2023/07/06 04:52:26;;;;;;;;;3.25;3.25;;;;;23.34;40.46;101269.22;4959077;28;45456;-47
2023/07/06 04:54:51;;;;;;;;;4.00;4.00;;;;;23.35;40.51;101276.22;4958356;28;46569;-44
2023/07/06 04:57:17;;;;;;;;;3.00;2.50;;;;;23.35;40.33;101278.00;4958470;28;59857;-49
2023/07/06 04:59:43;;;;;;;;;5.75;4.00;;;;;23.36;40.56;101274.44;4958288;28;64870;-49
2023/07/06 05:02:10;;;;;;;;;4.25;3.00;;;;;23.36;40.23;101277.91;4958967;28;45396;-50
2023/07/06 05:04:40;;;;;;;;;5.50;4.00;;;;;23.36;40.51;101277.06;4959309;28;45377;-52
2023/07/06 05:07:06;;;;;;;;;3.75;3.00;;;;;23.35;40.58;101273.56;4958794;28;46518;-47
2023/07/06 05:09:32;;;;;;;;;4.00;4.00;;;;;23.35;40.40;101275.38;4958613;28;45857;-49
2023/07/06 05:11:58;;;;;;;;;6.00;4.00;;;;;23.34;40.67;101279.78;4968574;28;45365;-48
2023/07/06 05:14:23;;;;;;;;;6.50;4.00;;;;;23.34;40.73;101277.16;4963445;28;45167;-45
2023/07/06 05:16:48;;;;;;;;;5.00;5.00;;;;;23.35;40.60;101283.31;4959817;28;46182;-50
2023/07/06 05:19:15;;;;;;;;;3.50;3.25;;;;;23.33;40.46;101280.72;4972838;28;57339;-48
2023/07/06 05:21:41;;;;;;;;;3.00;3.00;;;;;23.35;40.19;101280.66;4979092;28;45358;-50
2023/07/06 05:24:06;;;;;;;;;5.25;4.00;;;;;23.34;40.52;101285.09;4979809;28;45234;-41
2023/07/06 05:26:31;;;;;;;;;4.00;4.00;;;;;23.29;40.17;101281.88;4958968;28;46069;-43
2023/07/06 05:28:57;;;;;;;;;3.50;3.50;;;;;23.25;40.36;101281.22;4959648;28;45568;-46
2023/07/06 05:31:22;;;;;;;;;6.00;4.00;;;;;23.19;40.42;101283.34;4963815;28;60346;-54
2023/07/06 05:33:47;;;;;;;;;5.00;4.25;;;;;23.15;40.24;101288.81;4981794;28;44826;-53
2023/07/06 05:36:13;;;;;;;;;3.25;3.25;;;;;23.12;40.26;101283.69;4965186;28;47495;-53
2023/07/06 05:38:38;;;;;;;;;5.00;4.00;;;;;23.08;40.05;101279.53;4958333;28;45396;-53
2023/07/06 05:41:03;;;;;;;;;7.00;5.00;;;;;23.03;40.35;101289.53;4958320;28;45547;-53
2023/07/06 05:43:29;;;;;;;;;5.25;5.25;;;;;23.00;40.35;101284.41;4958828;28;45352;-53
2023/07/06 05:45:54;;;;;;;;;4.25;2.75;;;;;22.99;40.22;101285.34;4958065;28;45447;-51
2023/07/06 05:48:20;;;;;;;;;5.50;4.00;;;;;22.97;40.12;101285.44;4958622;28;45341;-54
2023/07/06 05:50:45;;;;;;;;;5.50;4.50;;;;;22.93;40.58;101283.09;4958218;28;45309;-50
2023/07/06 05:53:11;;;;;;;;;3.75;3.75;;;;;22.90;40.36;101285.91;4958372;28;45443;-51
2023/07/06 05:55:36;;;;;;;;;4.00;4.00;;;;;22.85;40.58;101287.03;4958797;28;47425;-54
2023/07/06 05:58:02;;;;;;;;;6.50;2.50;;;;;22.84;40.34;101287.97;4958017;28;45257;-53
2023/07/06 06:00:32;;;;;;;;;5.00;3.00;;;;;22.83;40.63;101285.41;4956789;28;45297;-53
2023/07/06 06:02:58;;;;;;;;;2.50;2.50;;;;;22.83;40.84;101294.19;4957125;28;45417;-51
2023/07/06 06:05:23;;;;;;;;;4.50;3.75;;;;;22.82;40.54;101294.28;4958500;28;48705;-52
2023/07/06 06:07:48;;;;;;;;;7.25;4.00;;;;;22.81;40.83;101285.50;4957019;28;45436;-53
2023/07/06 06:10:14;;;;;;;;;4.00;4.00;;;;;22.80;40.61;101289.06;4957895;28;45434;-53
2023/07/06 06:12:40;;;;;;;;;7.50;4.00;;;;;22.78;40.79;101296.25;4958283;28;45392;-54
2023/07/06 06:15:10;;;;;;;;;6.00;4.75;;;;;22.76;40.99;101294.63;4957888;28;46180;-54
2023/07/06 06:17:37;;;;;;;;;6.50;5.00;;;;;22.74;40.87;101300.03;4956799;28;45703;-54
2023/07/06 06:20:03;;;;;;;;;5.50;4.00;;;;;22.77;40.83;101305.09;4957914;28;45674;-51
2023/07/06 06:22:28;;;;;;;;;20.75;11.75;;;;;22.78;40.82;101312.09;4958012;28;45551;-53
2023/07/06 06:24:53;;;;;;;;;21.00;12.00;;;;;22.75;40.95;101306.13;4957231;28;66695;-52
2023/07/06 06:27:19;;;;;;;;;3.50;3.00;;;;;22.68;40.74;101309.16;4957633;28;45395;-53
2023/07/06 06:29:45;;;;;;;;;9.25;6.50;;;;;22.66;40.93;101302.22;4957771;28;45364;-53
2023/07/06 06:32:11;;;;;;;;;19.00;10.00;;;;;22.67;40.99;101307.44;4958034;28;45392;-53
2023/07/06 06:34:38;;;;;;;;;7.50;5.25;;;;;22.65;41.09;101303.19;4958021;28;46385;-53
2023/07/06 06:37:04;;;;;;;;;12.25;6.00;;;;;22.67;41.08;101306.56;4956657;28;45436;-53
2023/07/06 06:39:31;;;;;;;;;6.25;5.75;;;;;22.69;41.15;101296.78;4956266;28;45451;-51
2023/07/06 06:41:56;;;;;;;;;7.00;6.00;;;;;22.72;41.04;101311.59;4957717;28;45441;-52
2023/07/06 06:44:22;;;;;;;;;6.50;5.00;;;;;22.74;40.85;101304.44;4957059;28;45427;-53
2023/07/06 06:46:48;;;;;;;;;7.25;6.00;;;;;22.76;41.01;101307.84;4957287;28;45408;-52
2023/07/06 06:49:13;;;;;;;;;6.75;4.25;;;;;22.77;41.00;101310.38;4960623;28;45450;-52
2023/07/06 06:51:39;;;;;;;;;9.50;4.50;;;;;22.77;40.82;101305.09;4974093;28;45500;-52
2023/07/06 06:54:05;;;;;;;;;6.25;4.25;;;;;22.78;40.74;101308.63;4976672;28;45338;-47
2023/07/06 06:56:31;;;;;;;;;5.00;4.00;;;;;22.80;40.99;101314.66;4975754;28;45321;-50
2023/07/06 06:58:57;;;;;;;;;8.25;5.00;;;;;22.82;41.15;101318.91;4981819;28;44761;-46
2023/07/06 07:01:23;;;;;;;;;4.50;3.25;;;;;22.84;40.70;101318.81;4973804;28;45640;-57
2023/07/06 07:03:48;;;;;;;;;6.50;6.00;;;;;22.87;40.87;101317.81;4978686;28;45748;-54
2023/07/06 07:06:14;;;;;;;;;5.75;5.00;;;;;22.85;40.95;101324.03;4974550;28;49256;-49
2023/07/06 07:08:49;;;;;;;;;6.00;5.50;;;;;22.89;41.00;101329.13;4964849;28;45316;-56
2023/07/06 07:11:19;;;;;;;;;4.25;3.00;;;;;22.87;40.96;101320.47;4967857;28;44818;-51
2023/07/06 07:13:44;;;;;;;;;7.75;4.75;;;;;22.90;40.88;101320.25;4966497;28;46549;-55
2023/07/06 07:16:12;;;;;;;;;5.00;5.00;;;;;22.87;40.95;101321.28;4979640;28;45345;-52
2023/07/06 07:18:39;;;;;;;;;4.25;3.25;;;;;22.89;40.87;101329.13;4968365;28;45306;-54
2023/07/06 07:21:09;;;;;;;;;5.75;5.00;;;;;22.85;40.85;101318.75;4961008;28;45523;-52
2023/07/06 07:23:40;;;;;;;;;4.50;4.50;;;;;22.85;40.68;101324.03;4960696;28;47192;-51
2023/07/06 07:26:06;;;;;;;;;6.75;5.00;;;;;22.82;40.66;101321.56;4960148;28;45511;-53
2023/07/06 07:28:32;;;;;;;;;6.00;4.25;;;;;22.79;40.79;101319.09;4961036;28;45459;-49
2023/07/06 07:30:59;;;;;;;;;4.50;4.25;;;;;22.81;40.83;101316.38;4961136;28;45606;-46
2023/07/06 07:33:27;;;;;;;;;5.00;4.25;;;;;22.83;40.99;101317.97;4961118;28;46440;-47
2023/07/06 07:35:52;;;;;;;;;5.75;4.00;;;;;22.89;40.63;101313.25;4975033;28;45408;-45
2023/07/06 07:38:19;;;;;;;;;4.75;4.50;;;;;22.91;40.40;101320.19;4971530;28;44703;-50
2023/07/06 07:41:16;;;;;;;;;6.00;4.50;;;;;22.95;40.79;101311.13;4961554;28;45345;-50
2023/07/06 07:43:41;;;;;;;;;4.75;4.00;;;;;22.97;40.23;101311.06;4952860;28;45439;-48
2023/07/06 07:46:10;;;;;;;;;3.75;3.75;;;;;23.01;40.66;101310.78;4960567;28;45240;-51
2023/07/06 07:48:38;;;;;;;;;4.50;4.00;;;;;23.06;40.55;101307.88;4960403;28;45365;-51
2023/07/06 07:51:11;;;;;;;;;6.25;4.00;;;;;23.09;40.63;101312.97;4959428;28;45241;-48
2023/07/06 07:53:38;;;;;;;;;4.50;3.25;;;;;23.10;40.75;101304.06;4959082;28;46672;-45
2023/07/06 07:56:04;;;;;;;;;4.50;3.75;;;;;23.12;40.20;101310.13;4959771;28;45379;-44
2023/07/06 07:58:34;;;;;;;;;7.00;4.00;;;;;23.16;40.72;101310.78;4959974;28;45348;-45
2023/07/06 08:01:06;;;;;;;;;10.00;6.50;;;;;23.18;40.32;101308.91;4959372;28;45340;-46
2023/07/06 08:03:33;;;;;;;;;4.50;4.50;;;;;23.20;40.52;101307.06;4960185;28;45273;-45
2023/07/06 08:06:05;;;;;;;;;6.75;5.25;;;;;23.21;40.12;101302.63;4959807;28;45483;-44
2023/07/06 08:08:35;;;;;;;;;5.50;4.00;;;;;23.23;40.39;101309.53;4960239;28;45319;-50
2023/07/06 08:11:09;;;;;;;;;8.00;7.00;;;;;23.26;40.61;101306.69;4960642;28;45415;-47
2023/07/06 08:13:36;;;;;;;;;4.50;4.50;;;;;23.27;40.57;101304.91;4960278;28;45449;-47
2023/07/06 08:16:03;;;;;;;;;10.50;5.00;;;;;23.28;39.79;101303.97;4960194;28;45771;-45
2023/07/06 08:18:30;;;;;;;;;3.25;3.25;;;;;23.29;40.23;101303.88;4959924;28;45341;-49
2023/07/06 08:20:56;;;;;;;;;6.25;4.25;;;;;23.31;40.23;101304.63;4959882;28;45506;-48
2023/07/06 08:23:23;;;;;;;;;5.00;4.75;;;;;23.32;39.65;101305.47;4960202;28;47173;-47
2023/07/06 08:25:52;;;;;;;;;5.75;5.75;;;;;23.34;39.53;101300.13;4959766;28;45438;-49
2023/07/06 08:28:22;;;;;;;;;11.75;7.00;;;;;23.31;39.72;101294.06;4959896;28;45278;-47
2023/07/06 08:30:52;;;;;;;;;7.25;4.75;;;;;23.33;39.55;101301.88;4969144;28;45428;-50
2023/07/06 08:33:21;;;;;;;;;8.75;5.25;;;;;23.34;39.57;101298.31;4973724;28;46093;-50
2023/07/06 16:23:47;;;;;;;;;3.00;2.33;;;;;24.03;33.08;101027.63;6018701;23;46448;-30
2023/07/06 16:26:18;;;;;;;;;5.00;4.00;;;;;24.03;32.89;101025.81;4918730;28;45327;-52
2023/07/06 16:28:45;;;;;;;;;4.25;3.50;;;;;24.03;32.75;101020.53;4920921;28;45368;-55
2023/07/06 16:31:11;;;;;;;;;4.00;3.25;;;;;24.04;32.68;101022.22;4919860;28;45464;-54
2023/07/06 16:33:37;;;;;;;;;5.25;4.00;;;;;24.05;33.17;101015.97;4920279;28;45361;-53
2023/07/06 16:36:04;;;;;;;;;3.00;3.00;;;;;24.05;32.82;101012.47;4920230;28;45356;-53
2023/07/06 16:38:29;;;;;;;;;3.75;3.00;;;;;24.04;32.56;101008.13;4920396;28;45424;-55
2023/07/06 16:40:55;;;;;;;;;4.50;4.00;;;;;24.04;33.13;101016.94;4919818;28;45492;-48
2023/07/06 16:43:20;;;;;;;;;5.00;4.00;;;;;24.06;32.62;101014.16;4919749;28;45354;-54
2023/07/06 16:45:47;;;;;;;;;3.00;3.00;;;;;24.05;33.14;101008.03;4920270;28;45543;-53
2023/07/06 16:48:14;;;;;;;;;5.50;3.75;;;;;24.06;33.05;101009.75;4920370;28;45481;-54
2023/07/06 16:50:39;;;;;;;;;4.50;4.50;;;;;24.07;32.66;101010.56;4919709;28;46297;-51
2023/07/06 16:53:05;;;;;;;;;3.75;3.00;;;;;24.07;32.50;101016.72;4919841;28;45341;-55
2023/07/06 16:55:30;;;;;;;;;3.25;2.25;;;;;24.08;32.99;101010.50;4919940;28;45284;-53
2023/07/06 16:57:55;;;;;;;;;5.50;3.00;;;;;24.08;32.73;101006.97;4918874;28;45364;-54
2023/07/06 17:00:21;;;;;;;;;3.25;3.00;;;;;24.09;32.76;101009.50;4919803;28;46272;-53
2023/07/06 17:02:46;;;;;;;;;4.00;4.00;;;;;24.08;32.74;101002.53;4920041;28;45385;-48
2023/07/06 17:05:12;;;;;;;;;4.00;3.00;;;;;24.11;32.96;101008.56;4919829;28;45314;-52
2023/07/06 17:07:37;;;;;;;;;3.50;3.50;;;;;24.12;33.46;100997.00;4919941;28;45383;-50
2023/07/06 17:10:03;;;;;;;;;3.00;3.00;;;;;24.12;33.36;101002.31;4919563;28;45350;-52
2023/07/06 17:12:28;;;;;;;;;2.50;2.50;;;;;24.12;33.04;101002.31;4919641;28;45249;-49
2023/07/06 17:14:53;;;;;;;;;4.25;4.00;;;;;24.11;33.02;101004.13;4919444;28;45262;-52
2023/07/06 17:17:20;;;;;;;;;4.50;4.00;;;;;24.11;33.34;101005.91;4919664;28;48144;-54
2023/07/06 17:19:45;;;;;;;;;4.00;3.00;;;;;24.13;33.34;101001.38;4919676;28;47430;-52
2023/07/06 17:22:10;;;;;;;;;3.00;3.00;;;;;24.14;33.26;101005.72;4918986;28;60673;-53
2023/07/06 17:24:36;;;;;;;;;2.75;2.75;;;;;24.14;33.20;101001.28;4919597;28;45348;-54
2023/07/06 17:27:01;;;;;;;;;3.75;3.50;;;;;24.16;33.28;100995.88;4919521;28;45603;-53
2023/07/06 17:29:29;;;;;;;;;4.50;4.50;;;;;24.16;32.83;100993.22;4918028;28;47030;-49
2023/07/06 17:31:54;;;;;;;;;3.50;3.50;;;;;24.15;32.79;100994.16;4918732;28;45610;-55
2023/07/06 17:34:20;;;;;;;;;5.00;4.50;;;;;24.16;33.14;100995.88;4919512;28;45457;-55
2023/07/06 17:36:45;;;;;;;;;6.75;4.25;;;;;24.17;33.01;100995.75;4919948;28;45429;-56
2023/07/06 17:39:10;;;;;;;;;2.00;2.00;;;;;24.16;32.47;100998.50;4917883;28;47938;-55
2023/07/06 17:41:36;;;;;;;;;4.00;4.00;;;;;24.17;32.40;101003.69;4917965;28;45425;-55
2023/07/06 17:44:01;;;;;;;;;5.25;4.75;;;;;24.17;32.92;100994.91;4919205;28;45494;-51
2023/07/06 17:46:26;;;;;;;;;6.00;3.00;;;;;24.17;32.76;101001.03;4919243;28;45622;-48
2023/07/06 17:48:53;;;;;;;;;5.75;4.00;;;;;24.18;32.56;100994.81;4918931;28;46852;-53
2023/07/06 17:51:18;;;;;;;;;4.00;4.00;;;;;24.21;32.48;101012.28;4919324;28;45259;-52
2023/07/06 17:53:45;;;;;;;;;5.25;4.00;;;;;24.19;32.19;101001.78;4919148;28;45171;-54
2023/07/06 17:56:10;;;;;;;;;4.50;3.25;;;;;24.21;32.31;101001.69;4919246;28;45291;-53
2023/07/06 17:58:36;;;;;;;;;3.75;3.75;;;;;24.23;32.65;100997.13;4918920;28;46303;-54
2023/07/06 18:01:02;;;;;;;;;3.50;3.50;;;;;24.22;32.19;100996.28;4918885;28;45998;-49
2023/07/06 18:03:27;;;;;;;;;4.00;4.00;;;;;24.23;32.41;100998.00;4918992;28;45425;-44
2023/07/06 18:05:53;;;;;;;;;4.25;4.25;;;;;24.22;32.72;100992.78;4919110;28;45395;-49
2023/07/06 18:08:18;;;;;;;;;7.00;4.00;;;;;24.23;32.91;100994.47;4919039;28;46380;-53
2023/07/06 18:10:45;;;;;;;;;5.00;5.00;;;;;24.23;32.68;100994.47;4918846;28;45425;-53
2023/07/06 18:13:10;;;;;;;;;4.50;4.00;;;;;24.23;32.78;100989.19;4918940;28;45446;-48
2023/07/06 18:15:36;;;;;;;;;6.50;5.00;;;;;24.22;32.54;100998.94;4919056;28;45572;-51
2023/07/06 18:18:02;;;;;;;;;4.00;4.00;;;;;24.23;32.59;100995.34;4918872;28;46123;-46
2023/07/06 18:20:27;;;;;;;;;4.00;4.00;;;;;24.22;32.82;100996.28;4933545;28;45342;-49
2023/07/06 18:22:53;;;;;;;;;4.50;4.25;;;;;24.23;32.31;100999.78;4918992;28;45292;-46
2023/07/06 18:25:18;;;;;;;;;4.00;4.00;;;;;24.23;32.48;101000.66;4933143;28;50173;-47
2023/07/06 18:27:44;;;;;;;;;4.50;3.75;;;;;24.23;32.78;100994.47;4916354;28;45271;-51
2023/07/06 18:30:10;;;;;;;;;2.50;2.50;;;;;24.23;32.87;100999.78;4917753;28;45696;-51
2023/07/06 18:32:35;;;;;;;;;5.00;4.00;;;;;24.24;32.42;101004.13;4918333;28;46637;-46
2023/07/06 18:35:01;;;;;;;;;3.25;3.25;;;;;24.22;32.59;100993.66;4918042;28;45402;-54
2023/07/06 18:37:26;;;;;;;;;5.50;4.00;;;;;24.26;32.46;100998.72;4917577;28;46449;-51
2023/07/06 18:39:52;;;;;;;;;4.50;4.00;;;;;24.26;32.86;101006.66;4918401;28;45492;-51
2023/07/06 18:42:17;;;;;;;;;6.00;4.00;;;;;24.24;32.68;101002.34;4918579;28;45330;-55
2023/07/06 18:44:57;;;;;;;;;6.00;5.00;;;;;24.26;32.87;101009.31;4919655;28;45590;-53
2023/07/06 18:47:23;;;;;;;;;4.75;4.25;;;;;24.25;32.72;101005.81;4936385;28;47271;-53
2023/07/06 18:49:48;;;;;;;;;7.25;5.75;;;;;24.24;32.48;101005.00;4921270;28;58567;-53
2023/07/06 18:52:13;;;;;;;;;5.50;4.00;;;;;24.26;32.57;101007.53;4921771;28;45180;-49
2023/07/06 18:54:38;;;;;;;;;6.25;4.50;;;;;24.27;32.28;101005.72;4921788;28;45519;-53
2023/07/06 18:57:04;;;;;;;;;6.50;4.25;;;;;24.26;32.80;101004.00;4921332;28;46512;-46
2023/07/06 18:59:32;;;;;;;;;4.00;4.00;;;;;24.27;32.82;101009.22;4921578;28;45292;-51
2023/07/06 19:01:57;;;;;;;;;4.75;4.00;;;;;24.25;32.73;101005.81;4920377;28;45282;-41
2023/07/06 19:04:22;;;;;;;;;4.25;4.25;;;;;24.25;32.30;101005.81;4921698;28;45246;-44
2023/07/06 19:06:48;;;;;;;;;4.25;4.25;;;;;24.26;32.03;101004.88;4920844;28;46420;-42
2023/07/06 19:09:13;;;;;;;;;5.50;4.50;;;;;24.24;32.50;101006.78;4920713;28;45420;-43
2023/07/06 19:11:39;;;;;;;;;5.75;4.25;;;;;24.25;32.09;101003.19;4921150;28;45427;-45
2023/07/06 19:14:04;;;;;;;;;5.75;4.75;;;;;24.25;32.59;101008.47;4920832;28;45355;-42